sensor_id;sensor_type;location;lat;lon;timestamp;P1;durP1;ratioP1;P2;durP2;ratioP2
1320;SDS011;653;51.480;11.992;2023-07-13T00:01:29;3.57;;;3.20;;
1320;SDS011;653;51.480;11.992;2023-07-13T00:03:55;3.40;;;2.73;;
1320;SDS011;653;51.480;11.992;2023-07-13T00:06:23;4.43;;;3.17;;
1320;SDS011;653;51.480;11.992;2023-07-13T00:08:50;3.50;;;2.87;;
1320;SDS011;653;51.480;11.992;2023-07-13T00:11:17;5.20;;;3.47;;
1320;SDS011;653;51.480;11.992;2023-07-13T00:13:42;5.57;;;3.20;;
1320;SDS011;653;51.480;11.992;2023-07-13T00:16:09;3.60;;;3.00;;
1320;SDS011;653;51.480;11.992;2023-07-13T00:18:39;4.30;;;3.10;;
1320;SDS011;653;51.480;11.992;2023-07-13T00:21:06;5.73;;;3.00;;
1320;SDS011;653;51.480;11.992;2023-07-13T00:23:36;3.67;;;3.03;;
1320;SDS011;653;51.480;11.992;2023-07-13T00:26:04;3.83;;;3.10;;
1320;SDS011;653;51.480;11.992;2023-07-13T00:28:31;5.73;;;3.10;;
1320;SDS011;653;51.480;11.992;2023-07-13T00:30:59;4.27;;;2.80;;
1320;SDS011;653;51.480;11.992;2023-07-13T00:33:25;3.70;;;3.40;;
1320;SDS011;653;51.480;11.992;2023-07-13T00:35:53;3.87;;;3.43;;
1320;SDS011;653;51.480;11.992;2023-07-13T00:38:20;5.40;;;3.23;;
1320;SDS011;653;51.480;11.992;2023-07-13T00:40:47;5.20;;;2.80;;
1320;SDS011;653;51.480;11.992;2023-07-13T00:43:15;4.83;;;3.20;;
1320;SDS011;653;51.480;11.992;2023-07-13T00:48:31;5.20;;;3.23;;
1320;SDS011;653;51.480;11.992;2023-07-13T00:50:59;5.23;;;3.07;;
1320;SDS011;653;51.480;11.992;2023-07-13T00:53:27;4.60;;;4.20;;
1320;SDS011;653;51.480;11.992;2023-07-13T00:55:53;7.57;;;3.43;;
1320;SDS011;653;51.480;11.992;2023-07-13T00:58:21;3.70;;;2.83;;
1320;SDS011;653;51.480;11.992;2023-07-13T01:00:49;4.60;;;3.73;;
1320;SDS011;653;51.480;11.992;2023-07-13T01:03:16;5.33;;;3.80;;
1320;SDS011;653;51.480;11.992;2023-07-13T01:05:44;4.87;;;3.70;;
1320;SDS011;653;51.480;11.992;2023-07-13T01:08:14;4.20;;;3.40;;
1320;SDS011;653;51.480;11.992;2023-07-13T01:10:40;8.17;;;3.77;;
1320;SDS011;653;51.480;11.992;2023-07-13T01:13:10;7.27;;;3.70;;
1320;SDS011;653;51.480;11.992;2023-07-13T01:18:05;4.37;;;3.43;;
1320;SDS011;653;51.480;11.992;2023-07-13T01:20:54;4.57;;;3.43;;
1320;SDS011;653;51.480;11.992;2023-07-13T01:23:23;5.30;;;3.70;;
1320;SDS011;653;51.480;11.992;2023-07-13T01:25:52;5.67;;;3.60;;
1320;SDS011;653;51.480;11.992;2023-07-13T01:28:18;5.73;;;3.87;;
1320;SDS011;653;51.480;11.992;2023-07-13T01:30:45;8.23;;;4.20;;
1320;SDS011;653;51.480;11.992;2023-07-13T01:33:14;4.00;;;3.60;;
1320;SDS011;653;51.480;11.992;2023-07-13T01:35:43;4.37;;;3.70;;
1320;SDS011;653;51.480;11.992;2023-07-13T01:38:11;8.93;;;3.90;;
1320;SDS011;653;51.480;11.992;2023-07-13T01:40:40;3.13;;;2.83;;
1320;SDS011;653;51.480;11.992;2023-07-13T01:43:07;5.53;;;4.33;;
1320;SDS011;653;51.480;11.992;2023-07-13T01:45:35;3.73;;;3.40;;
1320;SDS011;653;51.480;11.992;2023-07-13T01:48:00;11.57;;;3.70;;
1320;SDS011;653;51.480;11.992;2023-07-13T01:50:27;3.53;;;3.27;;
1320;SDS011;653;51.480;11.992;2023-07-13T01:52:53;4.27;;;3.67;;
1320;SDS011;653;51.480;11.992;2023-07-13T01:55:20;3.93;;;3.43;;
1320;SDS011;653;51.480;11.992;2023-07-13T01:57:47;4.83;;;3.10;;
1320;SDS011;653;51.480;11.992;2023-07-13T02:00:12;5.30;;;4.07;;
1320;SDS011;653;51.480;11.992;2023-07-13T02:02:40;4.83;;;4.43;;
1320;SDS011;653;51.480;11.992;2023-07-13T02:05:06;4.73;;;3.80;;
1320;SDS011;653;51.480;11.992;2023-07-13T02:07:33;4.03;;;3.63;;
1320;SDS011;653;51.480;11.992;2023-07-13T02:09:59;6.00;;;3.83;;
1320;SDS011;653;51.480;11.992;2023-07-13T02:12:25;6.03;;;3.77;;
1320;SDS011;653;51.480;11.992;2023-07-13T02:14:52;8.10;;;3.90;;
1320;SDS011;653;51.480;11.992;2023-07-13T02:17:17;6.43;;;3.87;;
1320;SDS011;653;51.480;11.992;2023-07-13T02:19:42;4.57;;;3.30;;
1320;SDS011;653;51.480;11.992;2023-07-13T02:22:09;6.77;;;3.10;;
1320;SDS011;653;51.480;11.992;2023-07-13T02:24:37;5.10;;;3.80;;
1320;SDS011;653;51.480;11.992;2023-07-13T02:27:06;7.67;;;3.87;;
1320;SDS011;653;51.480;11.992;2023-07-13T02:29:33;5.30;;;3.63;;
1320;SDS011;653;51.480;11.992;2023-07-13T02:31:59;6.23;;;3.80;;
1320;SDS011;653;51.480;11.992;2023-07-13T02:34:24;3.97;;;3.47;;
1320;SDS011;653;51.480;11.992;2023-07-13T02:36:51;6.07;;;4.20;;
1320;SDS011;653;51.480;11.992;2023-07-13T02:39:17;3.77;;;3.37;;
1320;SDS011;653;51.480;11.992;2023-07-13T02:41:43;5.83;;;3.93;;
1320;SDS011;653;51.480;11.992;2023-07-13T02:44:12;3.87;;;3.37;;
1320;SDS011;653;51.480;11.992;2023-07-13T02:46:41;5.03;;;3.50;;
1320;SDS011;653;51.480;11.992;2023-07-13T02:49:08;4.60;;;3.20;;
1320;SDS011;653;51.480;11.992;2023-07-13T02:51:33;5.40;;;3.87;;
1320;SDS011;653;51.480;11.992;2023-07-13T02:54:01;8.20;;;4.13;;
1320;SDS011;653;51.480;11.992;2023-07-13T02:56:28;3.70;;;3.23;;
1320;SDS011;653;51.480;11.992;2023-07-13T02:58:57;4.23;;;3.83;;
1320;SDS011;653;51.480;11.992;2023-07-13T03:01:24;4.07;;;3.60;;
1320;SDS011;653;51.480;11.992;2023-07-13T03:03:51;4.60;;;4.20;;
1320;SDS011;653;51.480;11.992;2023-07-13T03:06:17;5.47;;;3.93;;
1320;SDS011;653;51.480;11.992;2023-07-13T03:08:43;5.30;;;4.20;;
1320;SDS011;653;51.480;11.992;2023-07-13T03:11:14;4.83;;;4.33;;
1320;SDS011;653;51.480;11.992;2023-07-13T03:13:41;5.03;;;3.80;;
1320;SDS011;653;51.480;11.992;2023-07-13T03:16:08;5.00;;;4.50;;
1320;SDS011;653;51.480;11.992;2023-07-13T03:18:38;4.77;;;3.70;;
1320;SDS011;653;51.480;11.992;2023-07-13T03:21:05;6.17;;;3.80;;
1320;SDS011;653;51.480;11.992;2023-07-13T03:23:32;5.07;;;3.73;;
1320;SDS011;653;51.480;11.992;2023-07-13T03:26:07;5.03;;;4.50;;
1320;SDS011;653;51.480;11.992;2023-07-13T03:28:40;4.47;;;4.07;;
1320;SDS011;653;51.480;11.992;2023-07-13T03:31:11;4.43;;;4.00;;
1320;SDS011;653;51.480;11.992;2023-07-13T03:33:39;6.30;;;4.17;;
1320;SDS011;653;51.480;11.992;2023-07-13T03:36:05;6.43;;;4.13;;
1320;SDS011;653;51.480;11.992;2023-07-13T03:38:34;5.93;;;4.60;;
1320;SDS011;653;51.480;11.992;2023-07-13T03:41:01;5.60;;;4.30;;
1320;SDS011;653;51.480;11.992;2023-07-13T03:43:28;4.67;;;4.27;;
1320;SDS011;653;51.480;11.992;2023-07-13T03:45:55;5.90;;;3.80;;
1320;SDS011;653;51.480;11.992;2023-07-13T03:48:21;4.30;;;4.00;;
1320;SDS011;653;51.480;11.992;2023-07-13T03:50:48;4.63;;;4.23;;
1320;SDS011;653;51.480;11.992;2023-07-13T03:53:15;4.43;;;4.03;;
1320;SDS011;653;51.480;11.992;2023-07-13T03:55:43;5.70;;;4.30;;
1320;SDS011;653;51.480;11.992;2023-07-13T04:00:55;5.53;;;4.67;;
1320;SDS011;653;51.480;11.992;2023-07-13T04:03:21;4.57;;;4.17;;
1320;SDS011;653;51.480;11.992;2023-07-13T04:05:48;5.40;;;4.90;;
1320;SDS011;653;51.480;11.992;2023-07-13T04:08:14;5.30;;;3.60;;
1320;SDS011;653;51.480;11.992;2023-07-13T04:10:41;4.80;;;4.40;;
1320;SDS011;653;51.480;11.992;2023-07-13T04:13:08;7.90;;;4.97;;
1320;SDS011;653;51.480;11.992;2023-07-13T04:15:33;4.47;;;3.90;;
1320;SDS011;653;51.480;11.992;2023-07-13T04:18:00;4.90;;;4.50;;
1320;SDS011;653;51.480;11.992;2023-07-13T04:20:27;5.03;;;4.60;;
1320;SDS011;653;51.480;11.992;2023-07-13T04:22:53;4.30;;;3.90;;
1320;SDS011;653;51.480;11.992;2023-07-13T04:25:20;7.50;;;4.00;;
1320;SDS011;653;51.480;11.992;2023-07-13T04:27:47;7.50;;;4.80;;
1320;SDS011;653;51.480;11.992;2023-07-13T04:30:14;4.90;;;4.40;;
1320;SDS011;653;51.480;11.992;2023-07-13T04:32:39;5.67;;;4.63;;
1320;SDS011;653;51.480;11.992;2023-07-13T04:35:06;6.13;;;4.37;;
1320;SDS011;653;51.480;11.992;2023-07-13T04:37:33;7.93;;;4.97;;
1320;SDS011;653;51.480;11.992;2023-07-13T04:39:59;5.50;;;4.40;;
1320;SDS011;653;51.480;11.992;2023-07-13T04:42:24;5.27;;;4.87;;
1320;SDS011;653;51.480;11.992;2023-07-13T04:44:51;8.33;;;4.77;;
1320;SDS011;653;51.480;11.992;2023-07-13T04:47:18;5.20;;;4.73;;
1320;SDS011;653;51.480;11.992;2023-07-13T04:49:44;5.50;;;5.10;;
1320;SDS011;653;51.480;11.992;2023-07-13T04:52:11;4.57;;;4.10;;
1320;SDS011;653;51.480;11.992;2023-07-13T04:54:36;6.20;;;4.00;;
1320;SDS011;653;51.480;11.992;2023-07-13T04:57:04;5.23;;;4.73;;
1320;SDS011;653;51.480;11.992;2023-07-13T04:59:34;5.87;;;5.37;;
1320;SDS011;653;51.480;11.992;2023-07-13T05:02:01;4.83;;;4.17;;
1320;SDS011;653;51.480;11.992;2023-07-13T05:04:27;5.23;;;4.73;;
1320;SDS011;653;51.480;11.992;2023-07-13T05:06:54;5.63;;;4.43;;
1320;SDS011;653;51.480;11.992;2023-07-13T05:09:21;5.50;;;4.37;;
1320;SDS011;653;51.480;11.992;2023-07-13T05:11:48;5.47;;;4.20;;
1320;SDS011;653;51.480;11.992;2023-07-13T05:14:15;4.70;;;4.30;;
1320;SDS011;653;51.480;11.992;2023-07-13T05:16:43;5.93;;;4.50;;
1320;SDS011;653;51.480;11.992;2023-07-13T05:19:09;7.47;;;4.80;;
1320;SDS011;653;51.480;11.992;2023-07-13T05:21:38;6.50;;;4.33;;
1320;SDS011;653;51.480;11.992;2023-07-13T05:24:04;4.53;;;3.90;;
1320;SDS011;653;51.480;11.992;2023-07-13T05:26:31;5.77;;;4.70;;
1320;SDS011;653;51.480;11.992;2023-07-13T05:28:57;4.97;;;4.57;;
1320;SDS011;653;51.480;11.992;2023-07-13T05:31:23;6.40;;;4.87;;
1320;SDS011;653;51.480;11.992;2023-07-13T05:33:51;6.60;;;4.57;;
1320;SDS011;653;51.480;11.992;2023-07-13T05:36:18;6.40;;;5.50;;
1320;SDS011;653;51.480;11.992;2023-07-13T05:38:43;5.40;;;4.87;;
1320;SDS011;653;51.480;11.992;2023-07-13T05:41:10;6.37;;;5.10;;
1320;SDS011;653;51.480;11.992;2023-07-13T05:43:36;8.93;;;4.63;;
1320;SDS011;653;51.480;11.992;2023-07-13T05:46:03;6.00;;;4.70;;
1320;SDS011;653;51.480;11.992;2023-07-13T05:48:30;7.73;;;4.77;;
1320;SDS011;653;51.480;11.992;2023-07-13T05:50:57;5.83;;;5.17;;
1320;SDS011;653;51.480;11.992;2023-07-13T05:53:24;9.10;;;4.87;;
1320;SDS011;653;51.480;11.992;2023-07-13T05:55:50;6.40;;;4.20;;
1320;SDS011;653;51.480;11.992;2023-07-13T05:58:19;7.37;;;4.70;;
1320;SDS011;653;51.480;11.992;2023-07-13T06:00:47;5.40;;;4.63;;
1320;SDS011;653;51.480;11.992;2023-07-13T06:03:13;5.37;;;4.00;;
1320;SDS011;653;51.480;11.992;2023-07-13T06:05:40;6.30;;;4.30;;
1320;SDS011;653;51.480;11.992;2023-07-13T06:08:06;5.90;;;4.17;;
1320;SDS011;653;51.480;11.992;2023-07-13T06:10:32;5.27;;;4.77;;
1320;SDS011;653;51.480;11.992;2023-07-13T06:12:58;4.97;;;4.47;;
1320;SDS011;653;51.480;11.992;2023-07-13T06:15:25;4.50;;;3.73;;
1320;SDS011;653;51.480;11.992;2023-07-13T06:17:51;4.53;;;3.60;;
1320;SDS011;653;51.480;11.992;2023-07-13T06:20:17;8.67;;;3.57;;
1320;SDS011;653;51.480;11.992;2023-07-13T06:22:44;5.97;;;4.30;;
1320;SDS011;653;51.480;11.992;2023-07-13T06:25:09;4.80;;;3.73;;
1320;SDS011;653;51.480;11.992;2023-07-13T06:27:35;4.43;;;3.90;;
1320;SDS011;653;51.480;11.992;2023-07-13T06:30:01;6.27;;;4.03;;
1320;SDS011;653;51.480;11.992;2023-07-13T06:32:28;7.07;;;3.60;;
1320;SDS011;653;51.480;11.992;2023-07-13T06:34:54;6.53;;;4.10;;
1320;SDS011;653;51.480;11.992;2023-07-13T06:37:21;4.83;;;3.80;;
1320;SDS011;653;51.480;11.992;2023-07-13T06:39:48;4.67;;;3.53;;
1320;SDS011;653;51.480;11.992;2023-07-13T06:42:13;4.70;;;3.60;;
1320;SDS011;653;51.480;11.992;2023-07-13T06:44:40;5.00;;;3.13;;
1320;SDS011;653;51.480;11.992;2023-07-13T06:47:06;6.40;;;3.33;;
1320;SDS011;653;51.480;11.992;2023-07-13T06:49:33;4.33;;;3.67;;
1320;SDS011;653;51.480;11.992;2023-07-13T06:52:00;5.80;;;3.70;;
1320;SDS011;653;51.480;11.992;2023-07-13T06:54:26;5.70;;;4.77;;
1320;SDS011;653;51.480;11.992;2023-07-13T06:56:54;4.20;;;3.37;;
1320;SDS011;653;51.480;11.992;2023-07-13T06:59:19;14.33;;;4.17;;
1320;SDS011;653;51.480;11.992;2023-07-13T07:01:46;6.50;;;4.27;;
1320;SDS011;653;51.480;11.992;2023-07-13T07:04:14;7.23;;;3.93;;
1320;SDS011;653;51.480;11.992;2023-07-13T07:06:41;3.83;;;3.10;;
1320;SDS011;653;51.480;11.992;2023-07-13T07:09:08;4.17;;;3.13;;
1320;SDS011;653;51.480;11.992;2023-07-13T07:11:36;7.43;;;3.50;;
1320;SDS011;653;51.480;11.992;2023-07-13T07:14:02;5.70;;;3.07;;
1320;SDS011;653;51.480;11.992;2023-07-13T07:16:29;5.77;;;3.27;;
1320;SDS011;653;51.480;11.992;2023-07-13T07:18:55;4.40;;;3.30;;
1320;SDS011;653;51.480;11.992;2023-07-13T07:21:22;3.87;;;3.33;;
1320;SDS011;653;51.480;11.992;2023-07-13T07:23:49;4.50;;;3.00;;
1320;SDS011;653;51.480;11.992;2023-07-13T07:26:16;5.13;;;3.30;;
1320;SDS011;653;51.480;11.992;2023-07-13T07:28:43;8.60;;;3.50;;
1320;SDS011;653;51.480;11.992;2023-07-13T07:31:10;5.07;;;3.60;;
1320;SDS011;653;51.480;11.992;2023-07-13T07:33:36;4.30;;;2.80;;
1320;SDS011;653;51.480;11.992;2023-07-13T07:36:02;4.43;;;2.83;;
1320;SDS011;653;51.480;11.992;2023-07-13T07:38:29;3.33;;;2.80;;
1320;SDS011;653;51.480;11.992;2023-07-13T07:40:55;5.93;;;3.03;;
1320;SDS011;653;51.480;11.992;2023-07-13T07:43:20;3.60;;;3.20;;
1320;SDS011;653;51.480;11.992;2023-07-13T07:45:47;4.67;;;3.50;;
1320;SDS011;653;51.480;11.992;2023-07-13T07:48:14;4.30;;;2.97;;
1320;SDS011;653;51.480;11.992;2023-07-13T07:50:41;4.37;;;3.83;;
1320;SDS011;653;51.480;11.992;2023-07-13T07:53:10;5.60;;;3.40;;
1320;SDS011;653;51.480;11.992;2023-07-13T07:55:38;5.90;;;3.80;;
1320;SDS011;653;51.480;11.992;2023-07-13T07:58:05;6.30;;;3.67;;
1320;SDS011;653;51.480;11.992;2023-07-13T08:00:32;7.30;;;3.57;;
1320;SDS011;653;51.480;11.992;2023-07-13T08:02:58;4.30;;;3.87;;
1320;SDS011;653;51.480;11.992;2023-07-13T08:05:24;6.17;;;3.57;;
1320;SDS011;653;51.480;11.992;2023-07-13T08:07:51;3.97;;;3.23;;
1320;SDS011;653;51.480;11.992;2023-07-13T08:10:18;3.77;;;3.47;;
1320;SDS011;653;51.480;11.992;2023-07-13T08:12:44;6.50;;;4.87;;
1320;SDS011;653;51.480;11.992;2023-07-13T08:15:15;5.63;;;4.00;;
1320;SDS011;653;51.480;11.992;2023-07-13T08:17:41;6.63;;;3.60;;
1320;SDS011;653;51.480;11.992;2023-07-13T08:20:08;5.13;;;3.73;;
1320;SDS011;653;51.480;11.992;2023-07-13T08:22:34;9.97;;;4.00;;
1320;SDS011;653;51.480;11.992;2023-07-13T08:25:02;5.97;;;3.63;;
1320;SDS011;653;51.480;11.992;2023-07-13T08:27:27;4.80;;;3.53;;
1320;SDS011;653;51.480;11.992;2023-07-13T08:29:55;4.50;;;4.10;;
1320;SDS011;653;51.480;11.992;2023-07-13T08:32:22;4.60;;;3.73;;
1320;SDS011;653;51.480;11.992;2023-07-13T08:34:49;5.67;;;3.80;;
1320;SDS011;653;51.480;11.992;2023-07-13T08:37:17;5.70;;;4.50;;
1320;SDS011;653;51.480;11.992;2023-07-13T08:39:44;5.13;;;4.40;;
1320;SDS011;653;51.480;11.992;2023-07-13T08:45:18;5.40;;;4.57;;
1320;SDS011;653;51.480;11.992;2023-07-13T08:47:54;6.40;;;3.30;;
1320;SDS011;653;51.480;11.992;2023-07-13T08:54:05;6.10;;;3.80;;
1320;SDS011;653;51.480;11.992;2023-07-13T08:56:48;5.43;;;4.40;;
1320;SDS011;653;51.480;11.992;2023-07-13T08:59:20;7.30;;;4.30;;
1320;SDS011;653;51.480;11.992;2023-07-13T09:02:03;4.23;;;3.83;;
1320;SDS011;653;51.480;11.992;2023-07-13T09:04:53;4.43;;;3.60;;
1320;SDS011;653;51.480;11.992;2023-07-13T09:10:24;6.77;;;3.70;;
1320;SDS011;653;51.480;11.992;2023-07-13T09:13:00;4.00;;;3.60;;
1320;SDS011;653;51.480;11.992;2023-07-13T09:15:52;6.00;;;4.10;;
1320;SDS011;653;51.480;11.992;2023-07-13T09:18:34;7.30;;;3.70;;
1320;SDS011;653;51.480;11.992;2023-07-13T09:23:49;5.63;;;3.90;;
1320;SDS011;653;51.480;11.992;2023-07-13T09:26:20;4.93;;;4.40;;
1320;SDS011;653;51.480;11.992;2023-07-13T09:28:57;5.60;;;3.90;;
1320;SDS011;653;51.480;11.992;2023-07-13T09:31:44;4.57;;;3.97;;
1320;SDS011;653;51.480;11.992;2023-07-13T09:34:14;5.87;;;3.73;;
1320;SDS011;653;51.480;11.992;2023-07-13T09:36:40;4.60;;;4.17;;
1320;SDS011;653;51.480;11.992;2023-07-13T09:39:15;4.70;;;3.43;;
1320;SDS011;653;51.480;11.992;2023-07-13T09:44:42;3.93;;;3.20;;
1320;SDS011;653;51.480;11.992;2023-07-13T09:47:25;5.80;;;3.30;;
1320;SDS011;653;51.480;11.992;2023-07-13T09:49:59;3.93;;;3.30;;
1320;SDS011;653;51.480;11.992;2023-07-13T09:52:27;5.30;;;3.00;;
1320;SDS011;653;51.480;11.992;2023-07-13T09:55:29;4.90;;;3.17;;
1320;SDS011;653;51.480;11.992;2023-07-13T09:58:03;3.67;;;3.37;;
1320;SDS011;653;51.480;11.992;2023-07-13T10:00:34;4.60;;;3.60;;
1320;SDS011;653;51.480;11.992;2023-07-13T10:05:47;6.50;;;3.57;;
1320;SDS011;653;51.480;11.992;2023-07-13T10:08:25;3.47;;;3.17;;
1320;SDS011;653;51.480;11.992;2023-07-13T10:10:57;3.07;;;2.83;;
1320;SDS011;653;51.480;11.992;2023-07-13T10:13:33;5.30;;;3.70;;
1320;SDS011;653;51.480;11.992;2023-07-13T10:16:04;3.60;;;3.27;;
1320;SDS011;653;51.480;11.992;2023-07-13T10:18:39;5.23;;;3.50;;
1320;SDS011;653;51.480;11.992;2023-07-13T10:21:20;4.53;;;3.00;;
1320;SDS011;653;51.480;11.992;2023-07-13T10:23:48;3.37;;;3.00;;
1320;SDS011;653;51.480;11.992;2023-07-13T10:26:17;3.23;;;2.70;;
1320;SDS011;653;51.480;11.992;2023-07-13T10:28:50;4.90;;;3.40;;
1320;SDS011;653;51.480;11.992;2023-07-13T10:31:21;4.23;;;3.30;;
1320;SDS011;653;51.480;11.992;2023-07-13T10:33:49;4.23;;;3.33;;
1320;SDS011;653;51.480;11.992;2023-07-13T10:36:34;3.73;;;3.07;;
1320;SDS011;653;51.480;11.992;2023-07-13T10:39:14;4.10;;;3.37;;
1320;SDS011;653;51.480;11.992;2023-07-13T10:41:41;3.60;;;3.20;;
1320;SDS011;653;51.480;11.992;2023-07-13T10:44:17;4.00;;;3.70;;
1320;SDS011;653;51.480;11.992;2023-07-13T10:46:46;5.63;;;4.20;;
1320;SDS011;653;51.480;11.992;2023-07-13T10:49:12;7.27;;;4.00;;
1320;SDS011;653;51.480;11.992;2023-07-13T10:51:39;3.77;;;3.30;;
1320;SDS011;653;51.480;11.992;2023-07-13T10:54:22;3.40;;;3.10;;
1320;SDS011;653;51.480;11.992;2023-07-13T10:57:16;4.33;;;3.37;;
1320;SDS011;653;51.480;11.992;2023-07-13T11:00:13;3.50;;;2.87;;
1320;SDS011;653;51.480;11.992;2023-07-13T11:02:42;4.53;;;3.47;;
1320;SDS011;653;51.480;11.992;2023-07-13T11:05:29;3.77;;;3.10;;
1320;SDS011;653;51.480;11.992;2023-07-13T11:08:19;8.53;;;3.40;;
1320;SDS011;653;51.480;11.992;2023-07-13T11:11:03;3.37;;;3.17;;
1320;SDS011;653;51.480;11.992;2023-07-13T11:13:55;4.50;;;3.33;;
1320;SDS011;653;51.480;11.992;2023-07-13T11:27:35;3.37;;;3.07;;
1320;SDS011;653;51.480;11.992;2023-07-13T11:33:01;2.80;;;2.60;;
1320;SDS011;653;51.480;11.992;2023-07-13T11:38:35;3.17;;;2.50;;
1320;SDS011;653;51.480;11.992;2023-07-13T11:41:48;3.47;;;2.50;;
1320;SDS011;653;51.480;11.992;2023-07-13T11:44:23;3.67;;;2.70;;
1320;SDS011;653;51.480;11.992;2023-07-13T11:46:51;2.90;;;2.70;;
1320;SDS011;653;51.480;11.992;2023-07-13T11:49:19;2.67;;;2.47;;
1320;SDS011;653;51.480;11.992;2023-07-13T11:51:47;2.47;;;2.27;;
1320;SDS011;653;51.480;11.992;2023-07-13T11:54:32;3.57;;;2.50;;
1320;SDS011;653;51.480;11.992;2023-07-13T11:57:22;5.43;;;2.73;;
1320;SDS011;653;51.480;11.992;2023-07-13T11:59:49;3.03;;;2.57;;
1320;SDS011;653;51.480;11.992;2023-07-13T12:02:26;8.80;;;3.10;;
1320;SDS011;653;51.480;11.992;2023-07-13T12:05:00;3.40;;;2.30;;
1320;SDS011;653;51.480;11.992;2023-07-13T12:07:30;2.73;;;2.30;;
1320;SDS011;653;51.480;11.992;2023-07-13T12:10:02;2.60;;;2.40;;
1320;SDS011;653;51.480;11.992;2023-07-13T12:12:45;3.00;;;2.67;;
1320;SDS011;653;51.480;11.992;2023-07-13T12:15:44;3.07;;;2.23;;
1320;SDS011;653;51.480;11.992;2023-07-13T12:18:22;3.33;;;2.40;;
1320;SDS011;653;51.480;11.992;2023-07-13T12:20:50;5.97;;;2.77;;
1320;SDS011;653;51.480;11.992;2023-07-13T12:23:31;3.90;;;3.50;;
1320;SDS011;653;51.480;11.992;2023-07-13T12:26:00;2.90;;;2.63;;
1320;SDS011;653;51.480;11.992;2023-07-13T12:28:32;2.43;;;2.20;;
1320;SDS011;653;51.480;11.992;2023-07-13T12:30:59;4.70;;;2.23;;
1320;SDS011;653;51.480;11.992;2023-07-13T12:33:29;2.60;;;2.30;;
1320;SDS011;653;51.480;11.992;2023-07-13T12:36:02;3.87;;;2.70;;
1320;SDS011;653;51.480;11.992;2023-07-13T12:38:30;2.70;;;2.50;;
1320;SDS011;653;51.480;11.992;2023-07-13T12:40:58;3.90;;;2.80;;
1320;SDS011;653;51.480;11.992;2023-07-13T12:43:25;2.93;;;2.50;;
1320;SDS011;653;51.480;11.992;2023-07-13T12:46:03;3.83;;;2.27;;
1320;SDS011;653;51.480;11.992;2023-07-13T12:48:41;4.23;;;2.77;;
1320;SDS011;653;51.480;11.992;2023-07-13T12:51:11;4.30;;;2.20;;
1320;SDS011;653;51.480;11.992;2023-07-13T12:53:43;3.13;;;2.37;;
1320;SDS011;653;51.480;11.992;2023-07-13T12:56:22;3.50;;;2.33;;
1320;SDS011;653;51.480;11.992;2023-07-13T12:59:01;4.57;;;2.93;;
1320;SDS011;653;51.480;11.992;2023-07-13T13:01:28;3.63;;;2.72;;
1320;SDS011;653;51.480;11.992;2023-07-13T13:03:56;2.70;;;2.50;;
1320;SDS011;653;51.480;11.992;2023-07-13T13:06:23;2.97;;;2.67;;
1320;SDS011;653;51.480;11.992;2023-07-13T13:08:53;3.40;;;2.77;;
1320;SDS011;653;51.480;11.992;2023-07-13T13:11:25;3.57;;;3.07;;
1320;SDS011;653;51.480;11.992;2023-07-13T13:13:54;3.13;;;2.43;;
1320;SDS011;653;51.480;11.992;2023-07-13T13:18:53;4.60;;;2.20;;
1320;SDS011;653;51.480;11.992;2023-07-13T13:21:20;2.93;;;2.73;;
1320;SDS011;653;51.480;11.992;2023-07-13T13:23:47;3.30;;;2.97;;
1320;SDS011;653;51.480;11.992;2023-07-13T13:26:14;3.33;;;3.13;;
1320;SDS011;653;51.480;11.992;2023-07-13T13:28:41;4.30;;;2.50;;
1320;SDS011;653;51.480;11.992;2023-07-13T13:31:11;3.10;;;2.80;;
1320;SDS011;653;51.480;11.992;2023-07-13T13:33:41;6.43;;;3.35;;
1320;SDS011;653;51.480;11.992;2023-07-13T13:36:15;3.33;;;2.85;;
1320;SDS011;653;51.480;11.992;2023-07-13T13:38:42;5.85;;;3.05;;
1320;SDS011;653;51.480;11.992;2023-07-13T13:41:09;3.20;;;2.63;;
1320;SDS011;653;51.480;11.992;2023-07-13T13:43:36;6.72;;;3.10;;
1320;SDS011;653;51.480;11.992;2023-07-13T13:46:09;3.63;;;3.33;;
1320;SDS011;653;51.480;11.992;2023-07-13T13:48:52;3.67;;;2.60;;
1320;SDS011;653;51.480;11.992;2023-07-13T13:51:19;2.33;;;2.13;;
1320;SDS011;653;51.480;11.992;2023-07-13T13:53:48;4.40;;;2.33;;
1320;SDS011;653;51.480;11.992;2023-07-13T13:56:15;3.10;;;2.73;;
1320;SDS011;653;51.480;11.992;2023-07-13T13:58:47;3.53;;;2.87;;
1320;SDS011;653;51.480;11.992;2023-07-13T14:01:13;3.33;;;3.03;;
1320;SDS011;653;51.480;11.992;2023-07-13T14:03:52;4.40;;;3.00;;
1320;SDS011;653;51.480;11.992;2023-07-13T14:06:18;2.80;;;2.57;;
1320;SDS011;653;51.480;11.992;2023-07-13T14:08:44;2.67;;;2.40;;
1320;SDS011;653;51.480;11.992;2023-07-13T14:11:12;3.30;;;2.63;;
1320;SDS011;653;51.480;11.992;2023-07-13T14:13:43;3.80;;;2.97;;
1320;SDS011;653;51.480;11.992;2023-07-13T14:16:25;4.27;;;3.47;;
1320;SDS011;653;51.480;11.992;2023-07-13T14:18:55;3.20;;;2.90;;
1320;SDS011;653;51.480;11.992;2023-07-13T14:21:28;2.80;;;2.60;;
1320;SDS011;653;51.480;11.992;2023-07-13T14:23:55;3.53;;;2.83;;
1320;SDS011;653;51.480;11.992;2023-07-13T14:26:23;3.67;;;2.60;;
1320;SDS011;653;51.480;11.992;2023-07-13T14:28:53;3.07;;;2.77;;
1320;SDS011;653;51.480;11.992;2023-07-13T14:31:24;3.83;;;2.97;;
1320;SDS011;653;51.480;11.992;2023-07-13T14:33:54;2.97;;;2.60;;
1320;SDS011;653;51.480;11.992;2023-07-13T14:36:32;3.80;;;2.97;;
1320;SDS011;653;51.480;11.992;2023-07-13T14:39:01;3.70;;;2.87;;
1320;SDS011;653;51.480;11.992;2023-07-13T14:41:35;3.23;;;2.93;;
1320;SDS011;653;51.480;11.992;2023-07-13T14:44:01;3.50;;;2.50;;
1320;SDS011;653;51.480;11.992;2023-07-13T14:46:31;3.27;;;2.80;;
1320;SDS011;653;51.480;11.992;2023-07-13T14:52:16;2.93;;;2.70;;
1320;SDS011;653;51.480;11.992;2023-07-13T14:54:44;2.60;;;2.40;;
1320;SDS011;653;51.480;11.992;2023-07-13T14:57:15;2.97;;;2.70;;
1320;SDS011;653;51.480;11.992;2023-07-13T14:59:45;4.23;;;3.23;;
1320;SDS011;653;51.480;11.992;2023-07-13T15:02:19;2.90;;;2.70;;
1320;SDS011;653;51.480;11.992;2023-07-13T15:05:05;2.90;;;2.70;;
1320;SDS011;653;51.480;11.992;2023-07-13T15:08:00;3.10;;;2.80;;
1320;SDS011;653;51.480;11.992;2023-07-13T15:10:29;3.03;;;2.83;;
1320;SDS011;653;51.480;11.992;2023-07-13T15:13:01;5.67;;;2.70;;
1320;SDS011;653;51.480;11.992;2023-07-13T15:15:53;2.90;;;2.53;;
1320;SDS011;653;51.480;11.992;2023-07-13T15:18:19;4.40;;;2.63;;
1320;SDS011;653;51.480;11.992;2023-07-13T15:20:48;3.40;;;2.60;;
1320;SDS011;653;51.480;11.992;2023-07-13T15:23:16;3.13;;;2.63;;
1320;SDS011;653;51.480;11.992;2023-07-13T15:25:42;3.00;;;2.70;;
1320;SDS011;653;51.480;11.992;2023-07-13T15:28:09;3.50;;;2.63;;
1320;SDS011;653;51.480;11.992;2023-07-13T15:30:53;3.40;;;3.10;;
1320;SDS011;653;51.480;11.992;2023-07-13T15:33:21;3.33;;;3.03;;
1320;SDS011;653;51.480;11.992;2023-07-13T15:35:55;4.13;;;2.97;;
1320;SDS011;653;51.480;11.992;2023-07-13T15:38:31;3.17;;;2.50;;
1320;SDS011;653;51.480;11.992;2023-07-13T15:40:56;2.63;;;2.43;;
1320;SDS011;653;51.480;11.992;2023-07-13T15:43:25;3.40;;;2.47;;
1320;SDS011;653;51.480;11.992;2023-07-13T15:45:51;3.50;;;3.20;;
1320;SDS011;653;51.480;11.992;2023-07-13T15:48:20;3.03;;;2.77;;
1320;SDS011;653;51.480;11.992;2023-07-13T15:51:04;3.20;;;2.60;;
1320;SDS011;653;51.480;11.992;2023-07-13T15:53:35;3.07;;;2.83;;
1320;SDS011;653;51.480;11.992;2023-07-13T15:56:27;3.00;;;2.50;;
1320;SDS011;653;51.480;11.992;2023-07-13T15:58:53;3.33;;;2.53;;
1320;SDS011;653;51.480;11.992;2023-07-13T16:01:19;2.70;;;2.43;;
1320;SDS011;653;51.480;11.992;2023-07-13T16:03:50;2.70;;;2.50;;
1320;SDS011;653;51.480;11.992;2023-07-13T16:06:50;2.63;;;2.43;;
1320;SDS011;653;51.480;11.992;2023-07-13T16:09:13;2.73;;;2.53;;
1320;SDS011;653;51.480;11.992;2023-07-13T16:11:45;3.10;;;2.60;;
1320;SDS011;653;51.480;11.992;2023-07-13T16:14:13;2.87;;;2.57;;
1320;SDS011;653;51.480;11.992;2023-07-13T16:16:40;4.10;;;2.83;;
1320;SDS011;653;51.480;11.992;2023-07-13T16:19:07;3.33;;;2.30;;
1320;SDS011;653;51.480;11.992;2023-07-13T16:21:47;2.70;;;2.50;;